Time;durP1;ratioP1;P1;durP2;ratioP2;P2;SDS_P1;SDS_P2;PMS_P1;PMS_P2;Temp;Humidity;BMP_temperature;BMP_pressure;BME280_temperature;BME280_humidity;BME280_pressure;Samples;Min_cycle;Max_cycle;Signal;HPM_P1;HPM_P2
2024/01/05 00:01:48;;;;;;;;;;;;;;;;;;5048002;28;19956;-49
2024/01/05 00:04:14;;;;;;;;;;;;;;;;;;5048497;28;19912;-50
2024/01/05 00:06:40;;;;;;;;;;;;;;;;;;5048132;28;19959;-50
2024/01/05 00:09:06;;;;;;;;;;;;;;;;;;5048519;28;19912;-51
2024/01/05 00:11:32;;;;;;;;;;;;;;;;;;5048095;28;20433;-49
2024/01/05 00:13:58;;;;;;;;;;;;;;;;;;5048372;28;19989;-49
2024/01/05 00:16:24;;;;;;;;;;;;;;;;;;5048233;28;20299;-49
2024/01/05 00:18:49;;;;;;;;;;;;;;;;;;5048094;28;19913;-49
2024/01/05 00:21:15;;;;;;;;;;;;;;;;;;5048195;28;20007;-50
2024/01/05 00:23:41;;;;;;;;;;;;;;;;;;5047863;28;20351;-50
2024/01/05 00:26:07;;;;;;;;;;;1.70;99.90;;;;;;5047847;28;20004;-50
2024/01/05 00:28:32;;;;;;;;;;;;;;;;;;5047849;28;19928;-49
2024/01/05 00:30:59;;;;;;;;;;;;;;;;;;5047527;28;20024;-49
2024/01/05 00:33:25;;;;;;;;;;;;;;;;;;5048308;28;20008;-49
2024/01/05 00:35:51;;;;;;;;;;;;;;;;;;5047450;28;20055;-49
2024/01/05 00:38:17;;;;;;;;;;;;;;;;;;5047723;28;20003;-48
2024/01/05 00:40:43;;;;;;;;;;;;;;;;;;5047285;28;19927;-50
2024/01/05 00:43:09;;;;;;;;;;;;;;;;;;5047269;28;19971;-49
2024/01/05 00:45:35;;;;;;;;;;;;;;;;;;5047218;28;20368;-50
2024/01/05 00:48:00;;;;;;;;;;;1.80;99.90;;;;;;5048026;28;19931;-50
2024/01/05 00:50:26;;;;;;;;;;;;;;;;;;5047233;28;19948;-50
2024/01/05 00:52:52;;;;;;;;;;;;;;;;;;5047391;28;19948;-50
2024/01/05 00:55:18;;;;;;;;;;;;;;;;;;5047367;28;20384;-51
2024/01/05 00:57:43;;;;;;;;;;;;;;;;;;5047227;28;19974;-50
2024/01/05 01:00:10;;;;;;;;;;;;;;;;;;5047150;28;19919;-50
2024/01/05 01:02:37;;;;;;;;;;;;;;;;;;5047427;28;19963;-50
2024/01/05 01:05:03;;;;;;;;;;;;;;;;;;5047249;28;20354;-50
2024/01/05 01:07:29;;;;;;;;;;;;;;;;;;5047298;28;20299;-50
2024/01/05 01:09:55;;;;;;;;;;;;;;;;;;5047131;28;19912;-50
2024/01/05 01:12:21;;;;;;;;;;;;;;;;;;5047572;28;19916;-50
2024/01/05 01:14:47;;;;;;;;;;;;;;;;;;5047028;28;19960;-50
2024/01/05 01:17:12;;;;;;;;;;;;;;;;;;5047152;28;19913;-50
2024/01/05 01:19:38;;;;;;;;;;;;;;;;;;5047007;28;19920;-50
2024/01/05 01:22:04;;;;;;;;;;;;;;;;;;5046830;28;19928;-50
2024/01/05 01:24:30;;;;;;;;;;;;;;;;;;5046920;28;19909;-50
2024/01/05 01:26:56;;;;;;;;;;;;;;;;;;5047544;28;20260;-50
2024/01/05 01:29:22;;;;;;;;;;;;;;;;;;5046709;28;19913;-50
2024/01/05 01:31:48;;;;;;;;;;;;;;;;;;5046800;28;20327;-49
2024/01/05 01:34:14;;;;;;;;;;;;;;;;;;5046797;28;19917;-50
2024/01/05 01:36:39;;;;;;;;;;;1.80;99.90;;;;;;5047050;28;20042;-50
2024/01/05 01:39:05;;;;;;;;;;;1.90;99.90;;;;;;5047073;28;19912;-50
2024/01/05 01:41:31;;;;;;;;;;;;;;;;;;5046497;28;19963;-50
2024/01/05 01:43:56;;;;;;;;;;;;;;;;;;5046864;28;19916;-49
2024/01/05 01:46:22;;;;;;;;;;;;;;;;;;5046718;28;20006;-49
2024/01/05 01:48:48;;;;;;;;;;;;;;;;;;5046524;28;20391;-50
2024/01/05 01:51:14;;;;;;;;;;;;;;;;;;5047378;28;20006;-50
2024/01/05 01:53:40;;;;;;;;;;;1.90;99.90;;;;;;5046457;28;20474;-50
2024/01/05 01:56:10;;;;;;;;;;;;;;;;;;5046595;28;19913;-50
2024/01/05 01:58:36;;;;;;;;;;;;;;;;;;5046694;28;19988;-49
2024/01/05 02:01:02;;;;;;;;;;;;;;;;;;5046169;28;20011;-49
2024/01/05 02:03:28;;;;;;;;;;;;;;;;;;5047196;28;19909;-50
2024/01/05 02:05:54;;;;;;;;;;;;;;;;;;5046586;28;20363;-49
2024/01/05 02:08:20;;;;;;;;;;;;;;;;;;5046414;28;19917;-49
2024/01/05 02:10:45;;;;;;;;;;;1.40;99.90;;;;;;5046392;28;19917;-49
2024/01/05 02:13:11;;;;;;;;;;;;;;;;;;5048452;28;20376;-49
2024/01/05 02:15:37;;;;;;;;;;;;;;;;;;5050537;28;20304;-49
2024/01/05 02:18:03;;;;;;;;;;;;;;;;;;5050753;28;19905;-49
2024/01/05 02:20:29;;;;;;;;;;;;;;;;;;5049931;28;20082;-50
2024/01/05 02:22:55;;;;;;;;;;;;;;;;;;5050436;28;19916;-50
2024/01/05 02:25:21;;;;;;;;;;;;;;;;;;5050267;28;19913;-50
2024/01/05 02:27:46;;;;;;;;;;;;;;;;;;5050205;28;20275;-50
2024/01/05 02:30:12;;;;;;;;;;;;;;;;;;5050368;28;19916;-50
2024/01/05 02:32:38;;;;;;;;;;;1.50;99.90;;;;;;5050161;28;19923;-49
2024/01/05 02:35:04;;;;;;;;;;;;;;;;;;5050079;28;19921;-51
2024/01/05 02:37:29;;;;;;;;;;;;;;;;;;5050299;28;20038;-50
2024/01/05 02:39:55;;;;;;;;;;;;;;;;;;5049965;28;19924;-50
2024/01/05 02:42:21;;;;;;;;;;;;;;;;;;5050480;28;19915;-50
2024/01/05 02:44:47;;;;;;;;;;;;;;;;;;5049848;28;20311;-50
2024/01/05 02:47:13;;;;;;;;;;;;;;;;;;5049945;28;19913;-50
2024/01/05 02:49:39;;;;;;;;;;;;;;;;;;5049443;28;19938;-49
2024/01/05 02:52:05;;;;;;;;;;;;;;;;;;5049603;28;20416;-50
2024/01/05 02:54:30;;;;;;;;;;;;;;;;;;5049665;28;19971;-50
2024/01/05 02:56:56;;;;;;;;;;;;;;;;;;5050033;28;19962;-50
2024/01/05 02:59:22;;;;;;;;;;;;;;;;;;5049476;28;19917;-50
2024/01/05 03:01:49;;;;;;;;;;;;;;;;;;5049664;28;19917;-49
2024/01/05 03:04:15;;;;;;;;;;;;;;;;;;5049405;28;19940;-49
2024/01/05 03:06:41;;;;;;;;;;;;;;;;;;5049585;28;20134;-50
2024/01/05 03:09:08;;;;;;;;;;;;;;;;;;5049661;28;19952;-50
2024/01/05 03:11:34;;;;;;;;;;;;;;;;;;5049320;28;19913;-50
2024/01/05 03:14:00;;;;;;;;;;;;;;;;;;5049284;28;20315;-50
2024/01/05 03:16:26;;;;;;;;;;;;;;;;;;5049204;28;19913;-50
2024/01/05 03:18:52;;;;;;;;;;;1.80;99.90;;;;;;5049142;28;19920;-50
2024/01/05 03:21:18;;;;;;;;;;;;;;;;;;5049836;28;19912;-50
2024/01/05 03:23:44;;;;;;;;;;;;;;;;;;5050201;28;20394;-50
2024/01/05 03:26:10;;;;;;;;;;;;;;;;;;5048945;28;20473;-50
2024/01/05 03:28:38;;;;;;;;;;;;;;;;;;5048933;28;19963;-51
2024/01/05 03:31:04;;;;;;;;;;;;;;;;;;5048696;28;19931;-51
2024/01/05 03:33:29;;;;;;;;;;;;;;;;;;5048815;28;19913;-50
2024/01/05 03:35:55;;;;;;;;;;;;;;;;;;5049562;28;19908;-51
2024/01/05 03:38:21;;;;;;;;;;;;;;;;;;5049078;28;19913;-50
2024/01/05 03:40:47;;;;;;;;;;;;;;;;;;5048713;28;19920;-50
2024/01/05 03:43:13;;;;;;;;;;;;;;;;;;5039359;28;19923;-52
2024/01/05 03:45:38;;;;;;;;;;;1.70;99.90;;;;;;5023353;28;19921;-52
2024/01/05 03:48:04;;;;;;;;;;;;;;;;;;5023762;28;19917;-53
2024/01/05 03:50:30;;;;;;;;;;;;;;;;;;5025592;28;20493;-51
2024/01/05 03:52:55;;;;;;;;;;;1.80;99.90;;;;;;5021670;28;19920;-51
2024/01/05 03:55:21;;;;;;;;;;;;;;;;;;5020545;28;19923;-51
2024/01/05 03:57:47;;;;;;;;;;;;;;;;;;5025264;28;19949;-51
2024/01/05 04:00:13;;;;;;;;;;;;;;;;;;5019668;28;21047;-52
2024/01/05 04:02:39;;;;;;;;;;;;;;;;;;5026459;28;20191;-51
2024/01/05 04:05:05;;;;;;;;;;;;;;;;;;5024931;28;19929;-51
2024/01/05 04:07:31;;;;;;;;;;;;;;;;;;5023373;28;19921;-52
2024/01/05 04:09:56;;;;;;;;;;;1.50;99.90;;;;;;5024031;28;20372;-52
2024/01/05 04:12:22;;;;;;;;;;;;;;;;;;5026763;28;19962;-52
2024/01/05 04:14:48;;;;;;;;;;;;;;;;;;5021783;28;20621;-52
2024/01/05 04:17:14;;;;;;;;;;;;;;;;;;5019890;28;20297;-52
2024/01/05 04:19:40;;;;;;;;;;;;;;;;;;5021197;28;19926;-52
2024/01/05 04:22:07;;;;;;;;;;;;;;;;;;5029865;28;19929;-52
2024/01/05 04:24:32;;;;;;;;;;;;;;;;;;5021351;28;20402;-54
2024/01/05 04:26:58;;;;;;;;;;;;;;;;;;5019757;28;19910;-52
2024/01/05 04:29:24;;;;;;;;;;;;;;;;;;5023537;28;19921;-52
2024/01/05 04:31:50;;;;;;;;;;;;;;;;;;5021129;28;20408;-51
2024/01/05 04:34:16;;;;;;;;;;;;;;;;;;5020537;28;19921;-51
2024/01/05 04:36:42;;;;;;;;;;;;;;;;;;5023073;28;20254;-52
2024/01/05 04:39:09;;;;;;;;;;;;;;;;;;5022250;28;19920;-52
2024/01/05 04:41:35;;;;;;;;;;;;;;;;;;5019813;28;20296;-52
2024/01/05 04:44:01;;;;;;;;;;;;;;;;;;5025127;28;19925;-52
2024/01/05 04:46:27;;;;;;;;;;;;;;;;;;5020630;28;20606;-51
2024/01/05 04:48:53;;;;;;;;;;;;;;;;;;5016505;28;20846;-51
2024/01/05 04:51:19;;;;;;;;;;;;;;;;;;5025175;28;19916;-51
2024/01/05 04:53:46;;;;;;;;;;;;;;;;;;5026376;28;19917;-51
2024/01/05 04:56:12;;;;;;;;;;;;;;;;;;5020051;28;20016;-52
2024/01/05 04:58:37;;;;;;;;;;;1.50;99.90;;;;;;5030716;28;20008;-54
2024/01/05 05:01:03;;;;;;;;;;;;;;;;;;5023449;28;19921;-52
2024/01/05 05:03:30;;;;;;;;;;;1.60;99.90;;;;;;5015091;28;20346;-52
2024/01/05 05:05:56;;;;;;;;;;;;;;;;;;5020461;28;19942;-51
2024/01/05 05:08:22;;;;;;;;;;;;;;;;;;5023071;28;20331;-52
2024/01/05 05:10:48;;;;;;;;;;;;;;;;;;5019107;28;20183;-52
2024/01/05 05:13:14;;;;;;;;;;;;;;;;;;5025254;28;19917;-52
2024/01/05 05:15:40;;;;;;;;;;;;;;;;;;5024759;28;20276;-53
2024/01/05 05:18:06;;;;;;;;;;;;;;;;;;5022680;28;19917;-52
2024/01/05 05:20:31;;;;;;;;;;;;;;;;;;5023438;28;19932;-52
2024/01/05 05:22:57;;;;;;;;;;;;;;;;;;5021175;28;19924;-52
2024/01/05 05:25:23;;;;;;;;;;;;;;;;;;5023306;28;20013;-52
2024/01/05 05:27:49;;;;;;;;;;;;;;;;;;5024093;28;19960;-52
2024/01/05 05:30:15;;;;;;;;;;;;;;;;;;5021725;28;19925;-52
2024/01/05 05:32:41;;;;;;;;;;;;;;;;;;5025797;28;25029;-52
2024/01/05 05:35:07;;;;;;;;;;;1.30;99.90;;;;;;5020313;28;20020;-53
2024/01/05 05:37:33;;;;;;;;;;;;;;;;;;5026142;28;20047;-52
2024/01/05 05:39:59;;;;;;;;;;;;;;;;;;5013021;28;19924;-52
2024/01/05 05:42:24;;;;;;;;;;;;;;;;;;5020962;28;20269;-52
2024/01/05 05:44:50;;;;;;;;;;;;;;;;;;5020767;28;19971;-52
2024/01/05 05:47:16;;;;;;;;;;;;;;;;;;5023546;28;19927;-52
2024/01/05 05:49:42;;;;;;;;;;;;;;;;;;5021432;28;19975;-52
2024/01/05 05:52:08;;;;;;;;;;;;;;;;;;5022215;28;20226;-52
2024/01/05 05:54:34;;;;;;;;;;;;;;;;;;5024294;28;19927;-52
2024/01/05 05:57:00;;;;;;;;;;;;;;;;;;5031718;28;19910;-52
2024/01/05 05:59:26;;;;;;;;;;;;;;;;;;5023440;28;19917;-51
2024/01/05 06:01:51;;;;;;;;;;;;;;;;;;5025731;28;19924;-51
2024/01/05 06:04:17;;;;;;;;;;;;;;;;;;5027210;28;19924;-52
2024/01/05 06:06:43;;;;;;;;;;;;;;;;;;5029128;28;19913;-53
2024/01/05 06:09:09;;;;;;;;;;;1.60;99.90;;;;;;5031324;28;19925;-51
2024/01/05 06:11:34;;;;;;;;;;;;;;;;;;5023634;28;20277;-51
2024/01/05 06:14:04;;;;;;;;;;;;;;;;;;5027074;28;19925;-51
2024/01/05 06:16:30;;;;;;;;;;;;;;;;;;5024341;28;19928;-51
2024/01/05 06:18:55;;;;;;;;;;;;;;;;;;5005382;28;19917;-51
2024/01/05 06:21:21;;;;;;;;;;;;;;;;;;5008908;28;19921;-51
2024/01/05 06:23:47;;;;;;;;;;;;;;;;;;5018954;28;19925;-51
2024/01/05 06:26:13;;;;;;;;;;;;;;;;;;5018993;28;20323;-51
2024/01/05 06:28:39;;;;;;;;;;;;;;;;;;5028364;28;20448;-51
2024/01/05 06:31:05;;;;;;;;;;;;;;;;;;5025587;28;19931;-51
2024/01/05 06:33:31;;;;;;;;;;;;;;;;;;5021425;28;20185;-51
2024/01/05 06:35:57;;;;;;;;;;;;;;;;;;5023931;28;19975;-52
2024/01/05 06:38:22;;;;;;;;;;;;;;;;;;5018318;28;20320;-52
2024/01/05 06:40:48;;;;;;;;;;;;;;;;;;5030692;28;19935;-52
2024/01/05 06:43:14;;;;;;;;;;;;;;;;;;5019745;28;19917;-51
2024/01/05 06:45:40;;;;;;;;;;;;;;;;;;5022963;28;20713;-51
2024/01/05 06:48:06;;;;;;;;;;;;;;;;;;5019445;28;19982;-52
2024/01/05 06:50:32;;;;;;;;;;;;;;;;;;5019545;28;19971;-53
2024/01/05 06:52:58;;;;;;;;;;;;;;;;;;5023409;28;19950;-52
2024/01/05 06:55:23;;;;;;;;;;;;;;;;;;5025875;28;20083;-53
2024/01/05 06:57:49;;;;;;;;;;;;;;;;;;5022190;28;19952;-53
2024/01/05 07:00:15;;;;;;;;;;;;;;;;;;5022237;28;20011;-52
2024/01/05 07:02:41;;;;;;;;;;;;;;;;;;5026260;28;19975;-52
2024/01/05 07:05:07;;;;;;;;;;;;;;;;;;5021197;28;19921;-52
2024/01/05 07:07:33;;;;;;;;;;;;;;;;;;5029280;28;19931;-53
2024/01/05 07:09:59;;;;;;;;;;;;;;;;;;5029273;28;19943;-52
2024/01/05 07:12:25;;;;;;;;;;;;;;;;;;5024535;28;20307;-52
2024/01/05 07:14:50;;;;;;;;;;;1.70;99.90;;;;;;5034300;28;19921;-52
2024/01/05 07:17:16;;;;;;;;;;;;;;;;;;5020230;28;19931;-52
2024/01/05 07:19:42;;;;;;;;;;;;;;;;;;5019397;28;19925;-52
2024/01/05 07:22:08;;;;;;;;;;;;;;;;;;5038863;28;19936;-52
2024/01/05 07:24:37;;;;;;;;;;;;;;;;;;5023299;28;19921;-52
2024/01/05 07:27:03;;;;;;;;;;;;;;;;;;5037237;28;19967;-50
2024/01/05 07:29:28;;;;;;;;;;;;;;;;;;5040763;28;20383;-51
2024/01/05 07:31:54;;;;;;;;;;;;;;;;;;5046351;28;19920;-51
2024/01/05 07:34:20;;;;;;;;;;;;;;;;;;5036544;28;19929;-51
2024/01/05 07:36:46;;;;;;;;;;;;;;;;;;5043806;28;19939;-52
2024/01/05 07:39:12;;;;;;;;;;;;;;;;;;5044739;28;19904;-51
2024/01/05 07:41:38;;;;;;;;;;;;;;;;;;5041418;28;20411;-51
2024/01/05 07:44:04;;;;;;;;;;;;;;;;;;5040524;28;20439;-52
2024/01/05 07:46:30;;;;;;;;;;;;;;;;;;5025366;28;20006;-52
2024/01/05 07:48:56;;;;;;;;;;;;;;;;;;5035344;28;19925;-52
2024/01/05 07:51:22;;;;;;;;;;;;;;;;;;5028814;28;19916;-52
2024/01/05 07:53:51;;;;;;;;;;;;;;;;;;5029302;28;19924;-52
2024/01/05 07:56:20;;;;;;;;;;;;;;;;;;5022961;28;19924;-52
2024/01/05 07:58:46;;;;;;;;;;;;;;;;;;5023692;28;19917;-51
2024/01/05 08:01:11;;;;;;;;;;;;;;;;;;5029403;28;20484;-51
2024/01/05 08:03:37;;;;;;;;;;;;;;;;;;5038767;28;19967;-51
2024/01/05 08:06:03;;;;;;;;;;;;;;;;;;5032500;28;20637;-52
2024/01/05 08:08:29;;;;;;;;;;;;;;;;;;5032208;28;20020;-52
2024/01/05 08:10:55;;;;;;;;;;;;;;;;;;5042236;28;19925;-52
2024/01/05 08:13:25;;;;;;;;;;;2.00;99.90;;;;;;5039837;28;20892;-52
2024/01/05 08:15:51;;;;;;;;;;;;;;;;;;5035388;28;19916;-52
2024/01/05 08:18:17;;;;;;;;;;;;;;;;;;5050533;28;20309;-52
2024/01/05 08:20:43;;;;;;;;;;;;;;;;;;5039561;28;19921;-52
2024/01/05 08:23:09;;;;;;;;;;;;;;;;;;5050270;28;19921;-52
2024/01/05 08:25:35;;;;;;;;;;;;;;;;;;5048574;28;19950;-52
2024/01/05 08:28:02;;;;;;;;;;;;;;;;;;5048697;28;20088;-52
2024/01/05 08:30:28;;;;;;;;;;;;;;;;;;5044505;28;19927;-53
2024/01/05 08:32:54;;;;;;;;;;;;;;;;;;5047274;28;19932;-52
2024/01/05 08:35:20;;;;;;;;;;;;;;;;;;5027623;28;20004;-52
2024/01/05 08:37:45;;;;;;;;;;;1.60;99.90;;;;;;5026172;28;20011;-52
2024/01/05 08:40:12;;;;;;;;;;;;;;;;;;5025244;28;19936;-52
2024/01/05 08:42:37;;;;;;;;;;;1.60;99.90;;;;;;5010000;28;19983;-52
2024/01/05 08:45:03;;;;;;;;;;;;;;;;;;5017602;28;20314;-51
2024/01/05 08:47:29;;;;;;;;;;;;;;;;;;5027758;28;19921;-52
2024/01/05 08:49:55;;;;;;;;;;;;;;;;;;5021929;28;19952;-52
2024/01/05 08:52:21;;;;;;;;;;;;;;;;;;5013510;28;20407;-51
2024/01/05 08:54:46;;;;;;;;;;;1.70;99.90;;;;;;5024845;28;19925;-52
2024/01/05 08:57:12;;;;;;;;;;;;;;;;;;5021813;28;19921;-52
2024/01/05 08:59:39;;;;;;;;;;;;;;;;;;5023060;28;19925;-52
2024/01/05 09:02:04;;;;;;;;;;;;;;;;;;5026169;28;19920;-52
2024/01/05 09:04:31;;;;;;;;;;;;;;;;;;5042730;28;20331;-52
2024/01/05 09:06:57;;;;;;;;;;;;;;;;;;5037668;28;19931;-52
2024/01/05 09:09:23;;;;;;;;;;;;;;;;;;5032686;28;19917;-52
2024/01/05 09:11:49;;;;;;;;;;;;;;;;;;5043809;28;19925;-51
2024/01/05 09:14:15;;;;;;;;;;;;;;;;;;5039206;28;19917;-52
2024/01/05 09:16:41;;;;;;;;;;;;;;;;;;5008516;28;19935;-52
2024/01/05 09:19:07;;;;;;;;;;;1.70;99.90;;;;;;5025043;28;20754;-51
2024/01/05 09:21:33;;;;;;;;;;;;;;;;;;5037151;28;20356;-51
2024/01/05 09:23:58;;;;;;;;;;;;;;;;;;5048950;28;20037;-52
2024/01/05 09:26:24;;;;;;;;;;;;;;;;;;5016137;28;20580;-51
2024/01/05 09:28:50;;;;;;;;;;;;;;;;;;5028599;28;19943;-51
2024/01/05 09:31:16;;;;;;;;;;;;;;;;;;5020898;28;19928;-52
2024/01/05 09:33:44;;;;;;;;;;;;;;;;;;5027665;28;21438;-52
2024/01/05 09:36:10;;;;;;;;;;;;;;;;;;5025228;28;19927;-51
2024/01/05 09:38:36;;;;;;;;;;;;;;;;;;5025372;28;19925;-52
2024/01/05 09:41:02;;;;;;;;;;;;;;;;;;5022839;28;20436;-51
2024/01/05 09:43:28;;;;;;;;;;;;;;;;;;5032629;22;20475;-49
2024/01/05 09:45:54;;;;;;;;;;;;;;;;;;5015399;28;19932;-49
2024/01/05 09:48:20;;;;;;;;;;;;;;;;;;5020246;28;19921;-49
2024/01/05 09:50:48;;;;;;;;;;;;;;;;;;5031261;28;19924;-50
2024/01/05 09:53:14;;;;;;;;;;;;;;;;;;5033757;28;19927;-49
2024/01/05 09:55:39;;;;;;;;;;;1.50;99.90;;;;;;5036022;28;19908;-49
2024/01/05 09:58:05;;;;;;;;;;;;;;;;;;5037655;28;20435;-49
2024/01/05 10:00:31;;;;;;;;;;;;;;;;;;5036631;28;23617;-49
2024/01/05 10:02:57;;;;;;;;;;;;;;;;;;5038854;28;19917;-49
2024/01/05 10:05:23;;;;;;;;;;;;;;;;;;5039838;28;19917;-49
2024/01/05 10:07:49;;;;;;;;;;;;;;;;;;5021817;28;19923;-49
2024/01/05 10:10:15;;;;;;;;;;;;;;;;;;5019223;28;20364;-49
2024/01/05 10:12:41;;;;;;;;;;;;;;;;;;5020315;28;19973;-49
2024/01/05 10:15:07;;;;;;;;;;;;;;;;;;5008846;28;19971;-49
2024/01/05 10:17:33;;;;;;;;;;;;;;;;;;5029440;28;19925;-49
2024/01/05 10:19:59;;;;;;;;;;;;;;;;;;5014461;28;20609;-49
2024/01/05 10:22:26;;;;;;;;;;;;;;;;;;5022582;28;19924;-49
2024/01/05 10:24:52;;;;;;;;;;;;;;;;;;5008777;28;19967;-49
2024/01/05 10:27:18;;;;;;;;;;;;;;;;;;5018539;28;19948;-49
2024/01/05 10:29:44;;;;;;;;;;;;;;;;;;5018670;28;19987;-49
2024/01/05 10:32:13;;;;;;;;;;;;;;;;;;5017674;28;21434;-49
2024/01/05 10:34:42;;;;;;;;;;;1.60;99.90;;;;;;5021666;28;19920;-49
2024/01/05 10:37:07;;;;;;;;;;;;;;;;;;5027504;28;19921;-49
2024/01/05 10:39:33;;;;;;;;;;;;;;;;;;5025056;28;19943;-49
2024/01/05 10:41:59;;;;;;;;;;;;;;;;;;5026903;28;19929;-49
2024/01/05 10:44:25;;;;;;;;;;;;;;;;;;5023167;28;19929;-49
2024/01/05 10:46:52;;;;;;;;;;;;;;;;;;5021313;28;19953;-49
2024/01/05 10:49:17;;;;;;;;;;;;;;;;;;5022114;28;19936;-49
2024/01/05 10:51:44;;;;;;;;;;;;;;;;;;5021897;28;20327;-49
2024/01/05 10:54:10;;;;;;;;;;;;;;;;;;5024386;28;19920;-49
2024/01/05 10:56:35;;;;;;;;;;;;;;;;;;5024867;28;19986;-49
2024/01/05 10:59:01;;;;;;;;;;;;;;;;;;5027973;28;20340;-49
2024/01/05 11:01:27;;;;;;;;;;;;;;;;;;5019694;28;19995;-49
2024/01/05 11:03:53;;;;;;;;;;;;;;;;;;5027674;28;19917;-49
2024/01/05 11:06:19;;;;;;;;;;;;;;;;;;5023794;28;20615;-49
2024/01/05 11:08:45;;;;;;;;;;;;;;;;;;5022701;28;19928;-49
2024/01/05 11:11:11;;;;;;;;;;;;;;;;;;5024528;28;19925;-49
2024/01/05 11:13:36;;;;;;;;;;;;;;;;;;5024231;28;19916;-49
2024/01/05 11:16:02;;;;;;;;;;;;;;;;;;5013351;28;19920;-49
2024/01/05 11:18:28;;;;;;;;;;;;;;;;;;5007566;28;19928;-50
2024/01/05 11:20:54;;;;;;;;;;;;;;;;;;5029472;28;20340;-49
2024/01/05 11:23:20;;;;;;;;;;;;;;;;;;5034328;28;19921;-49
2024/01/05 11:25:46;;;;;;;;;;;;;;;;;;5022109;28;20410;-49
2024/01/05 11:28:12;;;;;;;;;;;;;;;;;;5023366;28;19924;-50
2024/01/05 11:30:39;;;;;;;;;;;;;;;;;;5028225;28;19925;-49
2024/01/05 11:33:06;;;;;;;;;;;;;;;;;;5024253;28;20389;-49
2024/01/05 11:35:32;;;;;;;;;;;;;;;;;;5021940;28;19924;-49
2024/01/05 11:37:58;;;;;;;;;;;;;;;;;;5022508;28;20318;-49
2024/01/05 11:40:24;;;;;;;;;;;;;;;;;;5017511;28;19916;-49
2024/01/05 11:42:50;;;;;;;;;;;;;;;;;;5009925;28;21854;-49
2024/01/05 11:45:16;;;;;;;;;;;;;;;;;;5024034;28;20372;-50
2024/01/05 11:47:43;;;;;;;;;;;;;;;;;;5014658;28;19943;-49
2024/01/05 11:50:09;;;;;;;;;;;;;;;;;;5023296;28;19987;-49
2024/01/05 11:52:34;;;;;;;;;;;;;;;;;;5020374;28;19936;-49
2024/01/05 11:55:00;;;;;;;;;;;;;;;;;;5017432;28;19960;-50
2024/01/05 11:57:26;;;;;;;;;;;;;;;;;;5012334;28;19925;-49
2024/01/05 11:59:52;;;;;;;;;;;;;;;;;;5019716;28;20341;-49
2024/01/05 12:02:18;;;;;;;;;;;;;;;;;;5020750;28;19928;-50
2024/01/05 12:04:45;;;;;;;;;;;;;;;;;;5025798;28;20318;-49
2024/01/05 12:07:11;;;;;;;;;;;;;;;;;;5020255;28;20248;-49
2024/01/05 12:09:36;;;;;;;;;;;2.10;99.90;;;;;;5015338;28;19925;-49
2024/01/05 12:12:02;;;;;;;;;;;;;;;;;;5022763;28;19986;-49
2024/01/05 12:14:28;;;;;;;;;;;;;;;;;;5024427;28;19925;-50
2024/01/05 12:16:55;;;;;;;;;;;;;;;;;;5025243;28;20303;-49
2024/01/05 12:19:23;;;;;;;;;;;;;;;;;;5023429;28;19948;-50
2024/01/05 12:21:49;;;;;;;;;;;;;;;;;;5020926;28;19921;-49
2024/01/05 12:24:15;;;;;;;;;;;;;;;;;;5024071;28;19920;-50
2024/01/05 12:26:41;;;;;;;;;;;;;;;;;;5014202;28;20342;-49
2024/01/05 12:29:08;;;;;;;;;;;;;;;;;;5027368;28;19917;-49
2024/01/05 12:31:36;;;;;;;;;;;;;;;;;;5026719;28;20973;-49
2024/01/05 12:34:02;;;;;;;;;;;;;;;;;;5011176;28;19931;-50
2024/01/05 12:36:28;;;;;;;;;;;;;;;;;;5021685;28;20536;-49
2024/01/05 12:38:53;;;;;;;;;;;;;;;;;;5018188;28;19917;-49
2024/01/05 12:41:19;;;;;;;;;;;1.80;99.90;;;;;;5018889;28;19954;-49
2024/01/05 12:43:45;;;;;;;;;;;;;;;;;;5021739;28;19951;-48
2024/01/05 12:46:11;;;;;;;;;;;;;;;;;;5012334;28;19925;-49
2024/01/05 12:48:37;;;;;;;;;;;;;;;;;;5011643;28;19982;-49
2024/01/05 12:51:03;;;;;;;;;;;;;;;;;;5015085;28;20143;-49
2024/01/05 12:53:29;;;;;;;;;;;;;;;;;;5028038;28;20379;-49
2024/01/05 12:55:55;;;;;;;;;;;;;;;;;;5018937;28;20003;-49
2024/01/05 12:58:21;;;;;;;;;;;;;;;;;;5024272;28;19924;-48
2024/01/05 13:00:47;;;;;;;;;;;;;;;;;;5016092;28;19975;-48
2024/01/05 13:03:13;;;;;;;;;;;;;;;;;;5018584;28;20015;-49
2024/01/05 13:05:39;;;;;;;;;;;;;;;;;;5018333;28;19925;-49
2024/01/05 13:08:04;;;;;;;;;;;;;;;;;;5027498;28;19978;-49
2024/01/05 13:10:30;;;;;;;;;;;;;;;;;;5018501;28;21112;-49
2024/01/05 13:12:56;;;;;;;;;;;;;;;;;;5021249;28;19925;-50
2024/01/05 13:15:22;;;;;;;;;;;;;;;;;;5022683;28;19925;-48
2024/01/05 13:17:49;;;;;;;;;;;1.60;99.90;;;;;;5024074;28;20004;-49
2024/01/05 13:20:16;;;;;;;;;;;;;;;;;;5026061;28;19933;-49
2024/01/05 13:22:42;;;;;;;;;;;;;;;;;;5022313;28;20383;-49
2024/01/05 13:25:08;;;;;;;;;;;;;;;;;;5015355;28;19920;-49
2024/01/05 13:27:35;;;;;;;;;;;;;;;;;;5027755;28;19928;-49
2024/01/05 13:30:01;;;;;;;;;;;;;;;;;;5025179;28;19927;-49
2024/01/05 13:32:27;;;;;;;;;;;;;;;;;;5023444;28;19924;-49
2024/01/05 13:34:53;;;;;;;;;;;;;;;;;;5024934;28;20389;-49
2024/01/05 13:37:20;;;;;;;;;;;;;;;;;;5026146;28;20290;-49
2024/01/05 13:39:46;;;;;;;;;;;;;;;;;;5021245;28;19928;-48
2024/01/05 13:42:11;;;;;;;;;;;;;;;;;;5022722;28;19925;-49
2024/01/05 13:44:37;;;;;;;;;;;;;;;;;;5022869;28;20175;-49
2024/01/05 13:47:03;;;;;;;;;;;1.60;99.90;;;;;;5020341;28;21588;-49
2024/01/05 13:49:30;;;;;;;;;;;;;;;;;;5016912;28;19999;-49
2024/01/05 13:51:56;;;;;;;;;;;;;;;;;;5014098;28;20403;-48
2024/01/05 13:54:22;;;;;;;;;;;;;;;;;;5000747;28;19960;-48
2024/01/05 13:56:48;;;;;;;;;;;;;;;;;;5024414;28;19924;-48
2024/01/05 13:59:14;;;;;;;;;;;;;;;;;;5016353;28;19913;-48
2024/01/05 14:01:40;;;;;;;;;;;;;;;;;;5020042;28;19929;-48
2024/01/05 14:04:06;;;;;;;;;;;;;;;;;;5014075;28;19923;-48
2024/01/05 14:06:31;;;;;;;;;;;;;;;;;;5012759;28;19927;-48
2024/01/05 14:08:57;;;;;;;;;;;;;;;;;;5015595;28;20161;-48
2024/01/05 14:11:23;;;;;;;;;;;1.70;99.90;;;;;;5020478;28;19925;-47
2024/01/05 14:13:50;;;;;;;;;;;;;;;;;;5020454;28;21437;-48
2024/01/05 14:16:16;;;;;;;;;;;;;;;;;;5026560;28;19959;-48
2024/01/05 14:18:43;;;;;;;;;;;;;;;;;;5018790;28;19967;-48
2024/01/05 14:21:09;;;;;;;;;;;;;;;;;;5023605;28;19933;-48
2024/01/05 14:23:35;;;;;;;;;;;;;;;;;;5028230;28;20366;-48
2024/01/05 14:26:01;;;;;;;;;;;;;;;;;;5012783;28;20027;-48
2024/01/05 14:28:26;;;;;;;;;;;;;;;;;;5016821;28;19918;-48
2024/01/05 14:30:52;;;;;;;;;;;1.30;99.90;;;;;;5024737;28;19917;-48
2024/01/05 14:33:18;;;;;;;;;;;;;;;;;;5018966;28;20229;-48
2024/01/05 14:35:44;;;;;;;;;;;;;;;;;;5021470;28;19918;-48
2024/01/05 14:38:10;;;;;;;;;;;;;;;;;;5018262;28;19917;-48
2024/01/05 14:40:36;;;;;;;;;;;;;;;;;;5011351;28;19928;-50
2024/01/05 14:43:02;;;;;;;;;;;;;;;;;;5022036;28;19939;-50
2024/01/05 14:45:28;;;;;;;;;;;;;;;;;;5021954;28;19964;-50
2024/01/05 14:47:54;;;;;;;;;;;;;;;;;;5025159;28;21119;-50
2024/01/05 14:50:19;;;;;;;;;;;;;;;;;;5018908;28;20189;-48
2024/01/05 14:52:46;;;;;;;;;;;;;;;;;;5023423;28;19923;-48
2024/01/05 14:55:11;;;;;;;;;;;;;;;;;;5020208;28;19925;-48
2024/01/05 14:57:37;;;;;;;;;;;;;;;;;;5003515;28;20299;-48
2024/01/05 15:00:03;;;;;;;;;;;;;;;;;;5018317;28;19947;-48
2024/01/05 15:02:29;;;;;;;;;;;;;;;;;;5024672;28;20052;-48
2024/01/05 15:04:55;;;;;;;;;;;;;;;;;;5023576;28;19967;-48
2024/01/05 15:07:21;;;;;;;;;;;;;;;;;;5022324;28;20016;-49
2024/01/05 15:09:47;;;;;;;;;;;;;;;;;;5020746;28;21866;-48
2024/01/05 15:12:13;;;;;;;;;;;;;;;;;;5027179;28;19925;-48
2024/01/05 15:14:39;;;;;;;;;;;;;;;;;;5021953;28;19996;-48
2024/01/05 15:17:04;;;;;;;;;;;;;;;;;;5020666;28;19920;-48
2024/01/05 15:19:30;;;;;;;;;;;;;;;;;;5023915;28;19917;-48
2024/01/05 15:21:57;;;;;;;;;;;;;;;;;;5025662;28;19929;-48
2024/01/05 15:24:23;;;;;;;;;;;;;;;;;;5040538;28;19974;-48
2024/01/05 15:26:49;;;;;;;;;;;;;;;;;;5025457;28;20345;-48
2024/01/05 15:29:15;;;;;;;;;;;;;;;;;;5025400;28;19924;-48
2024/01/05 15:31:42;;;;;;;;;;;;;;;;;;5030506;28;19958;-48
2024/01/05 15:42:25;;;;;;;;;;;;;;;;;;5026529;28;20402;-48
2024/01/05 15:44:51;;;;;;;;;;;;;;;;;;4978491;22;19949;-50
2024/01/05 15:47:19;;;;;;;;;;;;;;;;;;4956511;28;19920;-50
2024/01/05 15:49:46;;;;;;;;;;;;;;;;;;5049850;28;19944;-50
2024/01/05 15:52:13;;;;;;;;;;;;;;;;;;5063134;28;20402;-50
2024/01/05 15:54:39;;;;;;;;;;;;;;;;;;5061663;28;19923;-50
2024/01/05 15:57:05;;;;;;;;;;;;;;;;;;5069167;28;19969;-50
2024/01/05 15:59:35;;;;;;;;;;;;;;;;;;5041757;28;20270;-50
2024/01/05 16:02:01;;;;;;;;;;;;;;;;;;4957302;28;19918;-50
2024/01/05 16:04:32;;;;;;;;;;;;;;;;;;4942668;28;20386;-50
2024/01/05 16:06:58;;;;;;;;;;;;;;;;;;4938707;28;20436;-50
2024/01/05 16:09:24;;;;;;;;;;;1.90;99.90;;;;;;5017424;28;19923;-50
2024/01/05 16:11:50;;;;;;;;;;;;;;;;;;4912774;28;22185;-50
2024/01/05 16:14:17;;;;;;;;;;;;;;;;;;4936591;28;19927;-50
2024/01/05 16:16:44;;;;;;;;;;;;;;;;;;4961762;28;19933;-50
2024/01/05 16:19:11;;;;;;;;;;;;;;;;;;4938048;28;19922;-50
2024/01/05 16:21:37;;;;;;;;;;;;;;;;;;4937472;28;19934;-50
2024/01/05 16:24:05;;;;;;;;;;;;;;;;;;4940156;28;21129;-50
2024/01/05 16:26:31;;;;;;;;;;;;;;;;;;4931907;28;20397;-50
2024/01/05 16:28:58;;;;;;;;;;;;;;;;;;4945888;28;19919;-50
2024/01/05 16:31:24;;;;;;;;;;;;;;;;;;4997417;28;20167;-50
2024/01/05 16:33:51;;;;;;;;;;;;;;;;;;4977411;28;19922;-50